sensor_id;sensor_type;location;lat;lon;timestamp;P1;durP1;ratioP1;P2;durP2;ratioP2
3967;SDS011;9221;42.646;23.380;2023-01-26T00:01:43;9.20;;;2.60;;
3967;SDS011;9221;42.646;23.380;2023-01-26T00:04:09;5.03;;;1.97;;
3967;SDS011;9221;42.646;23.380;2023-01-26T00:06:35;6.27;;;2.70;;
3967;SDS011;9221;42.646;23.380;2023-01-26T00:09:00;8.20;;;2.60;;
3967;SDS011;9221;42.646;23.380;2023-01-26T00:11:26;7.43;;;2.33;;
3967;SDS011;9221;42.646;23.380;2023-01-26T00:13:54;10.03;;;3.33;;
3967;SDS011;9221;42.646;23.380;2023-01-26T00:16:21;6.47;;;2.40;;
3967;SDS011;9221;42.646;23.380;2023-01-26T00:18:47;7.23;;;3.00;;
3967;SDS011;9221;42.646;23.380;2023-01-26T00:21:14;14.10;;;2.83;;
3967;SDS011;9221;42.646;23.380;2023-01-26T00:23:45;1.60;;;1.27;;
3967;SDS011;9221;42.646;23.380;2023-01-26T00:26:15;9.17;;;3.50;;
3967;SDS011;9221;42.646;23.380;2023-01-26T00:28:42;10.50;;;2.70;;
3967;SDS011;9221;42.646;23.380;2023-01-26T00:31:11;5.37;;;2.47;;
3967;SDS011;9221;42.646;23.380;2023-01-26T00:33:40;7.97;;;2.40;;
3967;SDS011;9221;42.646;23.380;2023-01-26T00:36:05;4.40;;;2.23;;
3967;SDS011;9221;42.646;23.380;2023-01-26T00:38:31;8.67;;;2.93;;
3967;SDS011;9221;42.646;23.380;2023-01-26T00:40:57;5.83;;;2.10;;
3967;SDS011;9221;42.646;23.380;2023-01-26T00:43:22;8.40;;;2.80;;
3967;SDS011;9221;42.646;23.380;2023-01-26T00:45:48;6.63;;;1.90;;
3967;SDS011;9221;42.646;23.380;2023-01-26T00:48:13;6.40;;;2.83;;
3967;SDS011;9221;42.646;23.380;2023-01-26T00:50:39;6.00;;;2.00;;
3967;SDS011;9221;42.646;23.380;2023-01-26T00:53:04;8.43;;;2.63;;
3967;SDS011;9221;42.646;23.380;2023-01-26T00:55:30;4.90;;;1.67;;
3967;SDS011;9221;42.646;23.380;2023-01-26T00:57:58;9.23;;;2.70;;
3967;SDS011;9221;42.646;23.380;2023-01-26T01:00:25;4.80;;;1.97;;
3967;SDS011;9221;42.646;23.380;2023-01-26T01:02:50;7.80;;;1.70;;
3967;SDS011;9221;42.646;23.380;2023-01-26T01:05:16;9.23;;;2.50;;
3967;SDS011;9221;42.646;23.380;2023-01-26T01:07:41;10.43;;;2.40;;
3967;SDS011;9221;42.646;23.380;2023-01-26T01:10:07;6.17;;;2.10;;
3967;SDS011;9221;42.646;23.380;2023-01-26T01:12:33;5.10;;;1.63;;
3967;SDS011;9221;42.646;23.380;2023-01-26T01:14:59;4.40;;;1.90;;
3967;SDS011;9221;42.646;23.380;2023-01-26T01:17:24;3.00;;;1.10;;
3967;SDS011;9221;42.646;23.380;2023-01-26T01:19:49;3.63;;;1.67;;
3967;SDS011;9221;42.646;23.380;2023-01-26T01:22:15;5.80;;;1.67;;
3967;SDS011;9221;42.646;23.380;2023-01-26T01:24:40;10.70;;;2.90;;
3967;SDS011;9221;42.646;23.380;2023-01-26T01:27:06;4.93;;;1.73;;
3967;SDS011;9221;42.646;23.380;2023-01-26T01:29:31;4.47;;;1.77;;
3967;SDS011;9221;42.646;23.380;2023-01-26T01:31:57;8.67;;;2.30;;
3967;SDS011;9221;42.646;23.380;2023-01-26T01:34:22;7.27;;;2.20;;
3967;SDS011;9221;42.646;23.380;2023-01-26T01:36:47;2.50;;;0.83;;
3967;SDS011;9221;42.646;23.380;2023-01-26T01:39:13;9.07;;;2.70;;
3967;SDS011;9221;42.646;23.380;2023-01-26T01:41:38;6.93;;;2.10;;
3967;SDS011;9221;42.646;23.380;2023-01-26T01:44:17;4.73;;;1.37;;
3967;SDS011;9221;42.646;23.380;2023-01-26T01:46:54;5.37;;;1.50;;
3967;SDS011;9221;42.646;23.380;2023-01-26T01:49:25;5.60;;;1.70;;
3967;SDS011;9221;42.646;23.380;2023-01-26T01:51:58;4.57;;;1.60;;
3967;SDS011;9221;42.646;23.380;2023-01-26T01:54:43;2.83;;;1.33;;
3967;SDS011;9221;42.646;23.380;2023-01-26T01:57:18;3.27;;;1.80;;
3967;SDS011;9221;42.646;23.380;2023-01-26T01:59:59;7.20;;;2.17;;
3967;SDS011;9221;42.646;23.380;2023-01-26T02:02:30;4.53;;;1.50;;
3967;SDS011;9221;42.646;23.380;2023-01-26T02:04:56;12.37;;;2.40;;
3967;SDS011;9221;42.646;23.380;2023-01-26T02:07:28;2.90;;;1.27;;
3967;SDS011;9221;42.646;23.380;2023-01-26T02:09:56;6.53;;;2.47;;
3967;SDS011;9221;42.646;23.380;2023-01-26T02:12:41;3.20;;;1.20;;
3967;SDS011;9221;42.646;23.380;2023-01-26T02:15:07;3.37;;;1.77;;
3967;SDS011;9221;42.646;23.380;2023-01-26T02:17:32;5.23;;;1.97;;
3967;SDS011;9221;42.646;23.380;2023-01-26T02:25:24;6.00;;;2.10;;
3967;SDS011;9221;42.646;23.380;2023-01-26T02:28:00;8.77;;;2.67;;
3967;SDS011;9221;42.646;23.380;2023-01-26T02:30:26;5.67;;;1.80;;
3967;SDS011;9221;42.646;23.380;2023-01-26T02:32:52;8.00;;;2.07;;
3967;SDS011;9221;42.646;23.380;2023-01-26T02:35:18;7.40;;;2.40;;
3967;SDS011;9221;42.646;23.380;2023-01-26T02:37:44;8.40;;;2.20;;
3967;SDS011;9221;42.646;23.380;2023-01-26T02:40:15;5.30;;;1.93;;
3967;SDS011;9221;42.646;23.380;2023-01-26T02:42:45;5.30;;;2.27;;
3967;SDS011;9221;42.646;23.380;2023-01-26T02:45:14;4.30;;;2.20;;
3967;SDS011;9221;42.646;23.380;2023-01-26T02:47:41;4.40;;;1.67;;
3967;SDS011;9221;42.646;23.380;2023-01-26T02:50:07;2.20;;;1.03;;
3967;SDS011;9221;42.646;23.380;2023-01-26T02:52:33;4.50;;;1.63;;
3967;SDS011;9221;42.646;23.380;2023-01-26T02:54:59;6.70;;;1.70;;
3967;SDS011;9221;42.646;23.380;2023-01-26T02:57:43;2.30;;;1.20;;
3967;SDS011;9221;42.646;23.380;2023-01-26T03:00:14;2.83;;;1.30;;
3967;SDS011;9221;42.646;23.380;2023-01-26T03:02:42;5.63;;;1.83;;
3967;SDS011;9221;42.646;23.380;2023-01-26T03:05:08;3.90;;;1.27;;
3967;SDS011;9221;42.646;23.380;2023-01-26T03:07:33;9.93;;;1.60;;
3967;SDS011;9221;42.646;23.380;2023-01-26T03:09:59;0.83;;;0.53;;
3967;SDS011;9221;42.646;23.380;2023-01-26T03:12:25;0.67;;;0.30;;
3967;SDS011;9221;42.646;23.380;2023-01-26T03:14:51;0.80;;;0.70;;
3967;SDS011;9221;42.646;23.380;2023-01-26T03:17:35;1.53;;;0.87;;
3967;SDS011;9221;42.646;23.380;2023-01-26T03:20:01;5.77;;;1.20;;
3967;SDS011;9221;42.646;23.380;2023-01-26T03:22:46;19.37;;;2.20;;
3967;SDS011;9221;42.646;23.380;2023-01-26T03:25:30;4.60;;;1.90;;
3967;SDS011;9221;42.646;23.380;2023-01-26T03:28:13;2.50;;;1.07;;
3967;SDS011;9221;42.646;23.380;2023-01-26T03:30:39;9.60;;;1.47;;
3967;SDS011;9221;42.646;23.380;2023-01-26T03:33:04;3.43;;;1.00;;
3967;SDS011;9221;42.646;23.380;2023-01-26T03:35:30;2.20;;;0.80;;
3967;SDS011;9221;42.646;23.380;2023-01-26T03:37:56;4.90;;;1.00;;
3967;SDS011;9221;42.646;23.380;2023-01-26T03:40:22;3.50;;;1.43;;
3967;SDS011;9221;42.646;23.380;2023-01-26T03:43:07;2.70;;;1.20;;
3967;SDS011;9221;42.646;23.380;2023-01-26T03:45:51;9.47;;;2.10;;
3967;SDS011;9221;42.646;23.380;2023-01-26T03:48:35;5.80;;;1.83;;
3967;SDS011;9221;42.646;23.380;2023-01-26T03:51:19;5.70;;;1.50;;
3967;SDS011;9221;42.646;23.380;2023-01-26T03:54:03;3.53;;;1.63;;
3967;SDS011;9221;42.646;23.380;2023-01-26T03:56:47;2.07;;;0.80;;
3967;SDS011;9221;42.646;23.380;2023-01-26T03:59:12;5.77;;;1.83;;
3967;SDS011;9221;42.646;23.380;2023-01-26T04:01:43;5.13;;;1.53;;
3967;SDS011;9221;42.646;23.380;2023-01-26T04:04:28;5.60;;;1.57;;
3967;SDS011;9221;42.646;23.380;2023-01-26T04:07:12;3.50;;;1.03;;
3967;SDS011;9221;42.646;23.380;2023-01-26T04:09:56;4.70;;;2.07;;
3967;SDS011;9221;42.646;23.380;2023-01-26T04:12:21;3.30;;;1.30;;
3967;SDS011;9221;42.646;23.380;2023-01-26T04:14:47;1.53;;;0.80;;
3967;SDS011;9221;42.646;23.380;2023-01-26T04:17:31;3.03;;;1.37;;
3967;SDS011;9221;42.646;23.380;2023-01-26T04:20:15;3.03;;;1.10;;
3967;SDS011;9221;42.646;23.380;2023-01-26T04:22:59;2.87;;;1.00;;
3967;SDS011;9221;42.646;23.380;2023-01-26T04:25:24;2.37;;;1.30;;
3967;SDS011;9221;42.646;23.380;2023-01-26T04:27:49;6.37;;;1.90;;
3967;SDS011;9221;42.646;23.380;2023-01-26T04:30:15;3.70;;;1.90;;
3967;SDS011;9221;42.646;23.380;2023-01-26T04:32:41;2.37;;;1.43;;
3967;SDS011;9221;42.646;23.380;2023-01-26T04:35:07;3.00;;;0.97;;
3967;SDS011;9221;42.646;23.380;2023-01-26T04:37:33;5.20;;;1.80;;
3967;SDS011;9221;42.646;23.380;2023-01-26T04:39:59;2.80;;;1.13;;
3967;SDS011;9221;42.646;23.380;2023-01-26T04:42:24;4.57;;;1.30;;
3967;SDS011;9221;42.646;23.380;2023-01-26T04:44:50;6.63;;;1.27;;
3967;SDS011;9221;42.646;23.380;2023-01-26T04:47:16;4.13;;;1.70;;
3967;SDS011;9221;42.646;23.380;2023-01-26T04:49:42;2.67;;;0.70;;
3967;SDS011;9221;42.646;23.380;2023-01-26T04:52:07;1.90;;;0.93;;
3967;SDS011;9221;42.646;23.380;2023-01-26T04:54:32;3.57;;;1.30;;
3967;SDS011;9221;42.646;23.380;2023-01-26T04:56:58;6.83;;;1.83;;
3967;SDS011;9221;42.646;23.380;2023-01-26T04:59:23;7.27;;;1.90;;
3967;SDS011;9221;42.646;23.380;2023-01-26T05:01:48;2.40;;;1.23;;
3967;SDS011;9221;42.646;23.380;2023-01-26T05:04:14;3.30;;;1.67;;
3967;SDS011;9221;42.646;23.380;2023-01-26T05:06:39;3.53;;;2.00;;
3967;SDS011;9221;42.646;23.380;2023-01-26T05:09:06;4.50;;;1.33;;
3967;SDS011;9221;42.646;23.380;2023-01-26T05:11:31;9.80;;;2.20;;
3967;SDS011;9221;42.646;23.380;2023-01-26T05:13:57;5.00;;;1.50;;
3967;SDS011;9221;42.646;23.380;2023-01-26T05:16:22;5.30;;;1.53;;
3967;SDS011;9221;42.646;23.380;2023-01-26T05:18:48;4.40;;;1.57;;
3967;SDS011;9221;42.646;23.380;2023-01-26T05:21:13;5.40;;;1.83;;
3967;SDS011;9221;42.646;23.380;2023-01-26T05:23:39;7.60;;;1.87;;
3967;SDS011;9221;42.646;23.380;2023-01-26T05:26:05;3.40;;;1.40;;
3967;SDS011;9221;42.646;23.380;2023-01-26T05:28:31;2.90;;;1.20;;
3967;SDS011;9221;42.646;23.380;2023-01-26T05:30:58;4.70;;;1.57;;
3967;SDS011;9221;42.646;23.380;2023-01-26T05:33:24;6.30;;;1.77;;
3967;SDS011;9221;42.646;23.380;2023-01-26T05:35:50;9.93;;;1.53;;
3967;SDS011;9221;42.646;23.380;2023-01-26T05:38:16;2.90;;;1.53;;
3967;SDS011;9221;42.646;23.380;2023-01-26T05:40:43;4.73;;;1.77;;
3967;SDS011;9221;42.646;23.380;2023-01-26T05:43:09;5.30;;;2.30;;
3967;SDS011;9221;42.646;23.380;2023-01-26T05:45:35;9.03;;;2.17;;
3967;SDS011;9221;42.646;23.380;2023-01-26T05:48:00;9.83;;;2.70;;
3967;SDS011;9221;42.646;23.380;2023-01-26T05:50:26;8.20;;;2.50;;
3967;SDS011;9221;42.646;23.380;2023-01-26T05:52:52;4.53;;;1.80;;
3967;SDS011;9221;42.646;23.380;2023-01-26T05:55:17;7.33;;;2.30;;
3967;SDS011;9221;42.646;23.380;2023-01-26T05:57:42;6.77;;;2.37;;
3967;SDS011;9221;42.646;23.380;2023-01-26T06:00:08;4.50;;;1.73;;
3967;SDS011;9221;42.646;23.380;2023-01-26T06:02:36;6.77;;;2.30;;
3967;SDS011;9221;42.646;23.380;2023-01-26T06:05:02;11.70;;;2.33;;
3967;SDS011;9221;42.646;23.380;2023-01-26T06:07:28;6.60;;;2.57;;
3967;SDS011;9221;42.646;23.380;2023-01-26T06:09:53;2.50;;;0.90;;
3967;SDS011;9221;42.646;23.380;2023-01-26T06:12:19;10.30;;;2.70;;
3967;SDS011;9221;42.646;23.380;2023-01-26T06:14:45;9.67;;;3.63;;
3967;SDS011;9221;42.646;23.380;2023-01-26T06:17:11;4.57;;;2.20;;
3967;SDS011;9221;42.646;23.380;2023-01-26T06:19:38;9.60;;;2.90;;
3967;SDS011;9221;42.646;23.380;2023-01-26T06:22:06;12.60;;;3.80;;
3967;SDS011;9221;42.646;23.380;2023-01-26T06:24:32;3.93;;;1.90;;
3967;SDS011;9221;42.646;23.380;2023-01-26T06:26:58;8.30;;;3.07;;
3967;SDS011;9221;42.646;23.380;2023-01-26T06:29:24;6.60;;;1.53;;
3967;SDS011;9221;42.646;23.380;2023-01-26T06:31:49;9.77;;;2.40;;
3967;SDS011;9221;42.646;23.380;2023-01-26T06:34:15;9.50;;;2.10;;
3967;SDS011;9221;42.646;23.380;2023-01-26T06:36:40;12.70;;;3.57;;
3967;SDS011;9221;42.646;23.380;2023-01-26T06:39:06;11.13;;;3.37;;
3967;SDS011;9221;42.646;23.380;2023-01-26T06:41:31;6.17;;;2.20;;
3967;SDS011;9221;42.646;23.380;2023-01-26T06:43:57;6.27;;;1.50;;
3967;SDS011;9221;42.646;23.380;2023-01-26T06:46:22;3.93;;;1.57;;
3967;SDS011;9221;42.646;23.380;2023-01-26T06:48:48;6.50;;;2.70;;
3967;SDS011;9221;42.646;23.380;2023-01-26T06:53:42;7.80;;;3.00;;
3967;SDS011;9221;42.646;23.380;2023-01-26T06:56:11;4.73;;;1.77;;
3967;SDS011;9221;42.646;23.380;2023-01-26T06:58:37;4.17;;;2.33;;
3967;SDS011;9221;42.646;23.380;2023-01-26T07:01:02;9.90;;;3.57;;
3967;SDS011;9221;42.646;23.380;2023-01-26T07:03:28;6.27;;;2.70;;
3967;SDS011;9221;42.646;23.380;2023-01-26T07:05:54;7.27;;;2.50;;
3967;SDS011;9221;42.646;23.380;2023-01-26T07:08:20;3.53;;;1.60;;
3967;SDS011;9221;42.646;23.380;2023-01-26T07:10:45;2.47;;;1.43;;
3967;SDS011;9221;42.646;23.380;2023-01-26T07:13:11;10.37;;;3.10;;
3967;SDS011;9221;42.646;23.380;2023-01-26T07:15:36;4.50;;;1.43;;
3967;SDS011;9221;42.646;23.380;2023-01-26T07:18:01;7.73;;;2.33;;
3967;SDS011;9221;42.646;23.380;2023-01-26T07:20:27;9.27;;;1.93;;
3967;SDS011;9221;42.646;23.380;2023-01-26T07:22:52;8.47;;;3.60;;
3967;SDS011;9221;42.646;23.380;2023-01-26T07:25:18;8.33;;;2.87;;
3967;SDS011;9221;42.646;23.380;2023-01-26T07:27:43;8.87;;;2.60;;
3967;SDS011;9221;42.646;23.380;2023-01-26T07:30:09;7.90;;;3.07;;
3967;SDS011;9221;42.646;23.380;2023-01-26T07:32:38;7.37;;;2.43;;
3967;SDS011;9221;42.646;23.380;2023-01-26T07:35:04;8.47;;;2.40;;
3967;SDS011;9221;42.646;23.380;2023-01-26T07:37:29;6.10;;;2.20;;
3967;SDS011;9221;42.646;23.380;2023-01-26T07:39:55;6.83;;;2.67;;
3967;SDS011;9221;42.646;23.380;2023-01-26T07:42:20;4.60;;;1.67;;
3967;SDS011;9221;42.646;23.380;2023-01-26T07:44:46;7.07;;;2.80;;
3967;SDS011;9221;42.646;23.380;2023-01-26T07:47:11;14.33;;;3.47;;
3967;SDS011;9221;42.646;23.380;2023-01-26T07:49:38;6.57;;;2.20;;
3967;SDS011;9221;42.646;23.380;2023-01-26T07:52:04;8.07;;;2.87;;
3967;SDS011;9221;42.646;23.380;2023-01-26T07:54:29;12.63;;;3.97;;
3967;SDS011;9221;42.646;23.380;2023-01-26T07:56:55;8.90;;;3.33;;
3967;SDS011;9221;42.646;23.380;2023-01-26T07:59:20;7.23;;;3.13;;
3967;SDS011;9221;42.646;23.380;2023-01-26T08:01:47;5.60;;;2.30;;
3967;SDS011;9221;42.646;23.380;2023-01-26T08:04:13;2.97;;;1.87;;
3967;SDS011;9221;42.646;23.380;2023-01-26T08:06:39;8.13;;;3.73;;
3967;SDS011;9221;42.646;23.380;2023-01-26T08:09:04;16.00;;;3.23;;
3967;SDS011;9221;42.646;23.380;2023-01-26T08:11:30;11.60;;;3.57;;
3967;SDS011;9221;42.646;23.380;2023-01-26T08:13:55;6.60;;;2.63;;
3967;SDS011;9221;42.646;23.380;2023-01-26T08:16:20;7.03;;;2.80;;
3967;SDS011;9221;42.646;23.380;2023-01-26T08:18:46;8.73;;;3.03;;
3967;SDS011;9221;42.646;23.380;2023-01-26T08:21:12;5.00;;;2.10;;
3967;SDS011;9221;42.646;23.380;2023-01-26T08:23:40;6.37;;;2.80;;
3967;SDS011;9221;42.646;23.380;2023-01-26T08:26:07;5.43;;;2.10;;
3967;SDS011;9221;42.646;23.380;2023-01-26T08:28:37;4.27;;;1.67;;
3967;SDS011;9221;42.646;23.380;2023-01-26T08:31:22;6.17;;;2.20;;
3967;SDS011;9221;42.646;23.380;2023-01-26T08:33:49;4.93;;;1.83;;
3967;SDS011;9221;42.646;23.380;2023-01-26T08:36:16;4.00;;;1.07;;
3967;SDS011;9221;42.646;23.380;2023-01-26T08:38:43;7.53;;;2.53;;
3967;SDS011;9221;42.646;23.380;2023-01-26T08:41:09;4.83;;;1.90;;
3967;SDS011;9221;42.646;23.380;2023-01-26T08:43:35;4.93;;;1.80;;
3967;SDS011;9221;42.646;23.380;2023-01-26T08:46:01;7.27;;;2.80;;
3967;SDS011;9221;42.646;23.380;2023-01-26T08:48:27;8.57;;;3.20;;
3967;SDS011;9221;42.646;23.380;2023-01-26T08:50:55;6.83;;;2.57;;
3967;SDS011;9221;42.646;23.380;2023-01-26T08:53:23;7.77;;;2.40;;
3967;SDS011;9221;42.646;23.380;2023-01-26T08:55:49;2.43;;;1.10;;
3967;SDS011;9221;42.646;23.380;2023-01-26T08:58:16;5.37;;;1.97;;
3967;SDS011;9221;42.646;23.380;2023-01-26T09:00:42;3.50;;;1.83;;
3967;SDS011;9221;42.646;23.380;2023-01-26T09:03:07;5.07;;;2.03;;
3967;SDS011;9221;42.646;23.380;2023-01-26T09:05:34;3.27;;;1.27;;
3967;SDS011;9221;42.646;23.380;2023-01-26T09:08:01;6.17;;;2.03;;
3967;SDS011;9221;42.646;23.380;2023-01-26T09:10:27;1.80;;;1.20;;
3967;SDS011;9221;42.646;23.380;2023-01-26T09:12:53;6.63;;;1.80;;
3967;SDS011;9221;42.646;23.380;2023-01-26T09:15:18;5.63;;;1.60;;
3967;SDS011;9221;42.646;23.380;2023-01-26T09:17:43;3.70;;;1.23;;
3967;SDS011;9221;42.646;23.380;2023-01-26T09:20:13;3.40;;;1.80;;
3967;SDS011;9221;42.646;23.380;2023-01-26T09:22:38;4.40;;;2.03;;
3967;SDS011;9221;42.646;23.380;2023-01-26T09:25:04;2.20;;;1.23;;
3967;SDS011;9221;42.646;23.380;2023-01-26T09:27:29;4.23;;;1.83;;
3967;SDS011;9221;42.646;23.380;2023-01-26T09:29:55;4.27;;;1.43;;
3967;SDS011;9221;42.646;23.380;2023-01-26T09:32:20;6.60;;;1.90;;
3967;SDS011;9221;42.646;23.380;2023-01-26T09:34:46;5.10;;;1.70;;
3967;SDS011;9221;42.646;23.380;2023-01-26T09:37:11;15.43;;;2.00;;
3967;SDS011;9221;42.646;23.380;2023-01-26T09:39:37;6.00;;;2.10;;
3967;SDS011;9221;42.646;23.380;2023-01-26T09:44:58;2.97;;;1.17;;
3967;SDS011;9221;42.646;23.380;2023-01-26T09:50:42;3.97;;;1.20;;
3967;SDS011;9221;42.646;23.380;2023-01-26T09:53:15;4.93;;;1.30;;
3967;SDS011;9221;42.646;23.380;2023-01-26T09:55:47;4.33;;;2.20;;
3967;SDS011;9221;42.646;23.380;2023-01-26T09:58:16;4.97;;;1.30;;
3967;SDS011;9221;42.646;23.380;2023-01-26T10:00:59;4.80;;;2.50;;
3967;SDS011;9221;42.646;23.380;2023-01-26T10:06:12;4.13;;;1.33;;
3967;SDS011;9221;42.646;23.380;2023-01-26T10:08:40;2.57;;;1.60;;
3967;SDS011;9221;42.646;23.380;2023-01-26T10:11:16;4.30;;;1.20;;
3967;SDS011;9221;42.646;23.380;2023-01-26T10:13:56;2.87;;;1.17;;
3967;SDS011;9221;42.646;23.380;2023-01-26T10:16:26;2.10;;;1.00;;
3967;SDS011;9221;42.646;23.380;2023-01-26T10:18:53;2.43;;;0.90;;
3967;SDS011;9221;42.646;23.380;2023-01-26T10:21:24;4.53;;;1.83;;
3967;SDS011;9221;42.646;23.380;2023-01-26T10:23:54;2.30;;;1.00;;
3967;SDS011;9221;42.646;23.380;2023-01-26T10:26:26;6.47;;;1.50;;
3967;SDS011;9221;42.646;23.380;2023-01-26T10:28:55;2.40;;;1.10;;
3967;SDS011;9221;42.646;23.380;2023-01-26T10:31:22;2.60;;;1.57;;
3967;SDS011;9221;42.646;23.380;2023-01-26T10:33:54;3.50;;;1.13;;
3967;SDS011;9221;42.646;23.380;2023-01-26T10:36:22;2.00;;;1.00;;
3967;SDS011;9221;42.646;23.380;2023-01-26T10:38:48;3.97;;;1.73;;
3967;SDS011;9221;42.646;23.380;2023-01-26T10:43:53;4.20;;;1.73;;
3967;SDS011;9221;42.646;23.380;2023-01-26T10:47:19;3.83;;;2.00;;
3967;SDS011;9221;42.646;23.380;2023-01-26T10:49:26;3.53;;;1.60;;
3967;SDS011;9221;42.646;23.380;2023-01-26T10:54:40;4.70;;;1.47;;
3967;SDS011;9221;42.646;23.380;2023-01-26T10:59:43;3.27;;;1.70;;
3967;SDS011;9221;42.646;23.380;2023-01-26T11:04:40;9.00;;;1.83;;
3967;SDS011;9221;42.646;23.380;2023-01-26T11:07:25;3.73;;;1.73;;
3967;SDS011;9221;42.646;23.380;2023-01-26T11:09:52;4.83;;;1.80;;
3967;SDS011;9221;42.646;23.380;2023-01-26T11:12:19;7.20;;;2.17;;
3967;SDS011;9221;42.646;23.380;2023-01-26T11:15:15;3.07;;;1.70;;
3967;SDS011;9221;42.646;23.380;2023-01-26T11:17:48;3.33;;;1.30;;
3967;SDS011;9221;42.646;23.380;2023-01-26T11:28:31;5.80;;;1.47;;
3967;SDS011;9221;42.646;23.380;2023-01-26T11:36:04;2.47;;;1.20;;
3967;SDS011;9221;42.646;23.380;2023-01-26T11:38:42;2.73;;;1.23;;
3967;SDS011;9221;42.646;23.380;2023-01-26T11:41:18;3.80;;;1.73;;
3967;SDS011;9221;42.646;23.380;2023-01-26T11:47:05;6.00;;;1.87;;
3967;SDS011;9221;42.646;23.380;2023-01-26T11:49:51;4.47;;;1.60;;
3967;SDS011;9221;42.646;23.380;2023-01-26T12:00:55;7.40;;;1.90;;
3967;SDS011;9221;42.646;23.380;2023-01-26T12:04:08;2.50;;;1.60;;
3967;SDS011;9221;42.646;23.380;2023-01-26T12:06:15;4.43;;;1.67;;
3967;SDS011;9221;42.646;23.380;2023-01-26T12:11:29;3.03;;;1.50;;
3967;SDS011;9221;42.646;23.380;2023-01-26T12:14:22;4.40;;;1.23;;
3967;SDS011;9221;42.646;23.380;2023-01-26T12:25:26;6.00;;;2.20;;
3967;SDS011;9221;42.646;23.380;2023-01-26T12:33:49;3.63;;;1.63;;
3967;SDS011;9221;42.646;23.380;2023-01-26T12:44:49;7.20;;;2.10;;
3967;SDS011;9221;42.646;23.380;2023-01-26T12:52:41;6.53;;;2.60;;
3967;SDS011;9221;42.646;23.380;2023-01-26T12:55:22;4.43;;;2.17;;
3967;SDS011;9221;42.646;23.380;2023-01-26T12:58:13;4.80;;;1.97;;
3967;SDS011;9221;42.646;23.380;2023-01-26T13:00:56;3.07;;;1.30;;
3967;SDS011;9221;42.646;23.380;2023-01-26T13:03:28;7.50;;;2.60;;
3967;SDS011;9221;42.646;23.380;2023-01-26T13:11:02;5.60;;;2.30;;
3967;SDS011;9221;42.646;23.380;2023-01-26T13:13:34;4.70;;;1.93;;
3967;SDS011;9221;42.646;23.380;2023-01-26T13:18:52;5.13;;;2.17;;
3967;SDS011;9221;42.646;23.380;2023-01-26T13:21:32;13.10;;;3.53;;
3967;SDS011;9221;42.646;23.380;2023-01-26T13:26:42;9.80;;;3.60;;
3967;SDS011;9221;42.646;23.380;2023-01-26T13:31:48;8.90;;;2.83;;
3967;SDS011;9221;42.646;23.380;2023-01-26T13:34:14;10.00;;;3.80;;
3967;SDS011;9221;42.646;23.380;2023-01-26T13:36:43;12.00;;;4.20;;
3967;SDS011;9221;42.646;23.380;2023-01-26T13:39:13;8.33;;;2.27;;
3967;SDS011;9221;42.646;23.380;2023-01-26T13:41:59;12.67;;;4.70;;
3967;SDS011;9221;42.646;23.380;2023-01-26T13:44:59;10.63;;;4.10;;
3967;SDS011;9221;42.646;23.380;2023-01-26T13:47:30;6.67;;;2.00;;
3967;SDS011;9221;42.646;23.380;2023-01-26T13:50:03;6.80;;;3.03;;
3967;SDS011;9221;42.646;23.380;2023-01-26T13:52:55;5.90;;;2.50;;
3967;SDS011;9221;42.646;23.380;2023-01-26T13:55:25;9.53;;;3.07;;
3967;SDS011;9221;42.646;23.380;2023-01-26T13:58:10;11.27;;;3.43;;
3967;SDS011;9221;42.646;23.380;2023-01-26T14:00:42;5.70;;;2.80;;
3967;SDS011;9221;42.646;23.380;2023-01-26T14:03:22;6.30;;;2.73;;
3967;SDS011;9221;42.646;23.380;2023-01-26T14:05:55;6.70;;;2.90;;
3967;SDS011;9221;42.646;23.380;2023-01-26T14:08:23;5.13;;;2.23;;
3967;SDS011;9221;42.646;23.380;2023-01-26T14:10:49;4.20;;;1.97;;
3967;SDS011;9221;42.646;23.380;2023-01-26T14:13:24;8.30;;;2.80;;
3967;SDS011;9221;42.646;23.380;2023-01-26T14:15:55;9.03;;;3.43;;
3967;SDS011;9221;42.646;23.380;2023-01-26T14:18:23;7.90;;;3.20;;
3967;SDS011;9221;42.646;23.380;2023-01-26T14:20:49;12.10;;;2.80;;
3967;SDS011;9221;42.646;23.380;2023-01-26T14:23:21;5.40;;;1.83;;
3967;SDS011;9221;42.646;23.380;2023-01-26T14:28:24;6.50;;;2.57;;
3967;SDS011;9221;42.646;23.380;2023-01-26T14:31:00;7.07;;;3.07;;
3967;SDS011;9221;42.646;23.380;2023-01-26T14:33:49;7.60;;;2.73;;
3967;SDS011;9221;42.646;23.380;2023-01-26T14:36:21;5.97;;;2.77;;
3967;SDS011;9221;42.646;23.380;2023-01-26T14:38:48;6.60;;;2.90;;
3967;SDS011;9221;42.646;23.380;2023-01-26T14:43:41;6.60;;;3.17;;
3967;SDS011;9221;42.646;23.380;2023-01-26T14:46:08;7.03;;;2.20;;
3967;SDS011;9221;42.646;23.380;2023-01-26T14:48:42;7.77;;;2.77;;
3967;SDS011;9221;42.646;23.380;2023-01-26T14:51:21;8.27;;;3.07;;
3967;SDS011;9221;42.646;23.380;2023-01-26T14:53:49;6.70;;;2.80;;
3967;SDS011;9221;42.646;23.380;2023-01-26T14:56:37;8.87;;;2.83;;
3967;SDS011;9221;42.646;23.380;2023-01-26T14:59:05;8.43;;;3.80;;
3967;SDS011;9221;42.646;23.380;2023-01-26T15:01:32;9.67;;;3.20;;
3967;SDS011;9221;42.646;23.380;2023-01-26T15:04:02;13.60;;;4.00;;
3967;SDS011;9221;42.646;23.380;2023-01-26T15:06:39;12.90;;;4.13;;
3967;SDS011;9221;42.646;23.380;2023-01-26T15:09:13;15.10;;;4.97;;
3967;SDS011;9221;42.646;23.380;2023-01-26T15:11:51;12.97;;;4.07;;
3967;SDS011;9221;42.646;23.380;2023-01-26T15:14:47;12.23;;;4.90;;
3967;SDS011;9221;42.646;23.380;2023-01-26T15:20:02;8.57;;;3.87;;
3967;SDS011;9221;42.646;23.380;2023-01-26T15:22:48;6.00;;;3.17;;
3967;SDS011;9221;42.646;23.380;2023-01-26T15:25:19;10.17;;;4.37;;
3967;SDS011;9221;42.646;23.380;2023-01-26T15:27:54;10.47;;;4.07;;
3967;SDS011;9221;42.646;23.380;2023-01-26T15:30:39;15.73;;;3.90;;
3967;SDS011;9221;42.646;23.380;2023-01-26T15:36:03;12.43;;;4.83;;
3967;SDS011;9221;42.646;23.380;2023-01-26T15:38:30;19.20;;;6.13;;
3967;SDS011;9221;42.646;23.380;2023-01-26T15:40:55;18.57;;;5.87;;
3967;SDS011;9221;42.646;23.380;2023-01-26T15:43:20;13.80;;;5.27;;
3967;SDS011;9221;42.646;23.380;2023-01-26T15:48:16;22.30;;;5.80;;
3967;SDS011;9221;42.646;23.380;2023-01-26T15:50:42;15.50;;;5.27;;
3967;SDS011;9221;42.646;23.380;2023-01-26T15:53:14;15.87;;;5.80;;
3967;SDS011;9221;42.646;23.380;2023-01-26T15:55:44;9.90;;;4.10;;
3967;SDS011;9221;42.646;23.380;2023-01-26T15:58:10;12.80;;;4.83;;
3967;SDS011;9221;42.646;23.380;2023-01-26T16:00:35;12.50;;;3.87;;
3967;SDS011;9221;42.646;23.380;2023-01-26T16:03:02;8.57;;;3.60;;
3967;SDS011;9221;42.646;23.380;2023-01-26T16:05:35;9.47;;;3.83;;
3967;SDS011;9221;42.646;23.380;2023-01-26T16:08:01;12.43;;;4.70;;
3967;SDS011;9221;42.646;23.380;2023-01-26T16:10:26;10.00;;;3.97;;
3967;SDS011;9221;42.646;23.380;2023-01-26T16:12:51;11.43;;;4.03;;
3967;SDS011;9221;42.646;23.380;2023-01-26T16:18:01;16.43;;;4.77;;
3967;SDS011;9221;42.646;23.380;2023-01-26T16:20:26;25.93;;;5.73;;
3967;SDS011;9221;42.646;23.380;2023-01-26T16:22:52;15.70;;;4.53;;
3967;SDS011;9221;42.646;23.380;2023-01-26T16:25:21;16.30;;;4.20;;
3967;SDS011;9221;42.646;23.380;2023-01-26T16:27:52;10.10;;;3.33;;
3967;SDS011;9221;42.646;23.380;2023-01-26T16:30:20;11.43;;;4.17;;
3967;SDS011;9221;42.646;23.380;2023-01-26T16:32:46;11.30;;;4.37;;
3967;SDS011;9221;42.646;23.380;2023-01-26T16:35:16;12.10;;;4.77;;
3967;SDS011;9221;42.646;23.380;2023-01-26T16:37:44;16.80;;;4.07;;
3967;SDS011;9221;42.646;23.380;2023-01-26T16:40:11;18.97;;;5.90;;
3967;SDS011;9221;42.646;23.380;2023-01-26T16:42:41;13.17;;;4.70;;
3967;SDS011;9221;42.646;23.380;2023-01-26T16:45:13;9.23;;;3.53;;
3967;SDS011;9221;42.646;23.380;2023-01-26T16:47:40;9.47;;;3.20;;
3967;SDS011;9221;42.646;23.380;2023-01-26T16:50:06;10.50;;;4.47;;
3967;SDS011;9221;42.646;23.380;2023-01-26T16:52:32;10.43;;;3.80;;
3967;SDS011;9221;42.646;23.380;2023-01-26T16:54:59;7.43;;;3.10;;
3967;SDS011;9221;42.646;23.380;2023-01-26T16:57:24;9.77;;;3.50;;
3967;SDS011;9221;42.646;23.380;2023-01-26T16:59:50;6.67;;;2.90;;
3967;SDS011;9221;42.646;23.380;2023-01-26T17:02:22;7.90;;;3.47;;
3967;SDS011;9221;42.646;23.380;2023-01-26T17:04:50;5.33;;;2.40;;
3967;SDS011;9221;42.646;23.380;2023-01-26T17:07:16;11.67;;;3.60;;